Time;durP1;ratioP1;P1;durP2;ratioP2;P2;SDS_P1;SDS_P2;PMS_P1;PMS_P2;Temp;Humidity;BMP_temperature;BMP_pressure;BME280_temperature;BME280_humidity;BME280_pressure;Samples;Min_cycle;Max_cycle;Signal;HPM_P1;HPM_P2
2024/02/20 00:04:35;;;;;;;19.25;11.43;;;;;;;13.48;100.00;101752.25;10450400;28;20056;-83
2024/02/20 00:09:58;;;;;;;15.63;11.20;;;;;;;13.37;100.00;101751.16;10448711;28;20098;-85
2024/02/20 00:15:21;;;;;;;20.50;11.93;;;;;;;13.28;100.00;101750.06;10445403;28;20044;-83
2024/02/20 00:20:45;;;;;;;17.25;12.27;;;;;;;13.23;100.00;101747.31;10436346;28;20487;-85
2024/02/20 00:26:09;;;;;;;17.42;12.27;;;;;;;13.21;100.00;101758.75;10477024;28;20167;-84
2024/02/20 00:31:36;;;;;;;17.63;11.82;;;;;;;13.25;100.00;101744.72;10463196;28;20265;-84
2024/02/20 00:37:01;;;;;;;15.82;12.30;;;;;;;13.12;100.00;101738.22;10445760;28;20060;-83
2024/02/20 00:42:24;;;;;;;22.73;12.50;;;;;;;12.98;100.00;101724.69;10485443;28;20410;-83
2024/02/20 00:47:47;;;;;;;17.38;11.52;;;;;;;12.80;100.00;101729.56;10443770;28;20068;-83
2024/02/20 00:53:11;;;;;;;19.10;10.90;;;;;;;12.77;100.00;101718.91;10456395;28;20499;-84
2024/02/20 00:58:33;;;;;;;19.63;11.45;;;;;;;12.64;100.00;101711.56;10484819;28;20098;-83
2024/02/20 01:03:56;;;;;;;17.95;11.57;;;;;;;12.55;100.00;101708.69;10470474;28;20055;-83
2024/02/20 01:09:20;;;;;;;20.20;11.65;;;;;;;12.47;100.00;101697.03;10441884;28;20498;-82
2024/02/20 01:14:44;;;;;;;16.85;11.48;;;;;;;12.36;100.00;101691.47;10454927;28;20072;-83
2024/02/20 01:20:07;;;;;;;21.23;14.27;;;;;;;12.40;100.00;101689.81;10452419;28;20041;-84
2024/02/20 01:25:31;;;;;;;20.17;11.63;;;;;;;12.41;100.00;101683.63;10469276;28;20459;-83
2024/02/20 01:30:54;;;;;;;16.75;12.32;;;;;;;12.23;100.00;101682.34;10454864;28;20049;-83
2024/02/20 01:36:19;;;;;;;19.25;11.32;;;;;;;12.07;100.00;101684.63;10470399;28;20049;-83
2024/02/20 01:41:43;;;;;;;15.15;10.25;;;;;;;12.26;100.00;101687.75;10482937;28;20626;-83
2024/02/20 01:47:06;;;;;;;17.40;10.40;;;;;;;12.14;100.00;101690.06;10481265;28;20049;-83
2024/02/20 01:52:29;;;;;;;16.45;10.95;;;;;;;12.04;100.00;101687.19;10454782;28;20053;-84
2024/02/20 01:57:53;;;;;;;16.85;10.57;;;;;;;12.07;100.00;101687.28;10480949;28;20057;-84
2024/02/20 02:03:15;;;;;;;15.48;10.10;;;;;;;12.05;100.00;101681.94;10482670;28;20049;-84
2024/02/20 02:08:38;;;;;;;16.25;10.88;;;;;;;12.07;100.00;101685.53;10454122;28;20558;-83
2024/02/20 02:14:02;;;;;;;15.68;9.73;;;;;;;12.17;100.00;101687.50;10455454;28;20118;-82
2024/02/20 02:19:25;;;;;;;18.20;12.23;;;;;;;11.96;100.00;101682.59;10452034;28;20049;-83
2024/02/20 02:24:49;;;;;;;16.27;10.75;;;;;;;12.01;100.00;101682.72;10481916;28;20134;-83
2024/02/20 02:30:15;;;;;;;15.07;10.45;;;;;;;11.83;100.00;101682.25;10467022;28;20112;-83
2024/02/20 02:35:37;;;;;;;16.25;10.35;;;;;;;12.02;100.00;101676.53;10468029;28;20044;-83
2024/02/20 02:41:00;;;;;;;15.57;10.52;;;;;;;11.95;100.00;101686.09;10455887;28;20614;-83
2024/02/20 02:46:24;;;;;;;16.33;10.77;;;;;;;11.84;100.00;101684.94;10467524;28;20056;-84
2024/02/20 02:51:47;;;;;;;17.17;11.38;;;;;;;11.87;100.00;101682.38;10452739;28;20103;-83
2024/02/20 02:57:09;;;;;;;16.08;10.70;;;;;;;11.81;100.00;101690.16;10479861;28;20055;-83
2024/02/20 03:02:33;;;;;;;15.20;10.13;;;;;;;11.82;100.00;101691.03;10478814;28;20102;-82
2024/02/20 03:07:56;;;;;;;17.95;11.68;;;;;;;11.79;100.00;101698.91;10459079;28;20560;-84
2024/02/20 03:13:19;;;;;;;15.27;11.05;;;;;;;11.79;100.00;101697.16;10436527;28;20052;-83
2024/02/20 03:18:43;;;;;;;16.83;10.48;;;;;;;11.79;100.00;101698.91;10476867;28;20048;-84
2024/02/20 03:24:07;;;;;;;14.80;10.40;;;;;;;11.93;100.00;101710.75;10450416;28;20053;-84
2024/02/20 03:29:30;;;;;;;15.85;10.55;;;;;;;12.06;100.00;101714.59;10450770;28;20063;-84
2024/02/20 03:34:54;;;;;;;14.65;10.82;;;;;;;11.99;100.00;101713.53;10436273;28;20041;-83
2024/02/20 03:40:17;;;;;;;15.93;10.65;;;;;;;12.24;100.00;101705.34;10436180;28;20494;-83
2024/02/20 03:45:39;;;;;;;16.42;10.75;;;;;;;12.39;100.00;101704.81;10450504;28;20421;-84
2024/02/20 03:51:05;;;;;;;16.77;10.95;;;;;;;12.38;100.00;101703.91;10477585;28;20049;-82
2024/02/20 03:56:28;;;;;;;15.50;10.65;;;;;;;12.56;100.00;101707.81;10450404;28;20148;-82
2024/02/20 04:01:50;;;;;;;17.00;10.60;;;;;;;12.74;100.00;101713.53;10449773;28;20093;-83
2024/02/20 04:07:14;;;;;;;18.58;11.43;;;;;;;12.92;100.00;101715.72;10431655;28;20080;-83
2024/02/20 04:12:37;;;;;;;15.73;10.68;;;;;;;13.04;100.00;101727.47;10477295;28;20053;-84
2024/02/20 04:18:00;;;;;;;14.93;9.85;;;;;;;12.95;100.00;101721.94;10449492;28;20521;-83
2024/02/20 04:23:24;;;;;;;15.60;10.02;;;;;;;13.04;100.00;101726.56;10443946;28;20059;-83
2024/02/20 04:28:47;;;;;;;16.60;9.77;;;;;;;13.14;100.00;101734.75;10448743;28;20052;-84
2024/02/20 04:34:10;;;;;;;16.55;9.98;;;;;;;13.13;100.00;101734.72;10448499;28;20491;-84
2024/02/20 04:39:35;;;;;;;16.65;9.98;;;;;;;13.25;100.00;101742.06;10448074;28;20045;-84
2024/02/20 04:44:57;;;;;;;19.00;9.80;;;;;;;13.40;100.00;101745.00;10464062;28;20045;-84
2024/02/20 04:50:20;;;;;;;17.00;9.38;;;;;;;13.52;100.00;101747.91;10448815;28;20121;-83
2024/02/20 04:55:44;;;;;;;13.80;9.75;;;;;;;13.54;100.00;101747.06;10449113;28;20091;-84
2024/02/20 05:01:07;;;;;;;14.73;9.63;;;;;;;13.46;100.00;101753.06;10435001;28;20041;-83
2024/02/20 05:06:30;;;;;;;14.45;9.80;;;;;;;13.56;100.00;101753.31;10434813;28;20505;-82
2024/02/20 05:11:54;;;;;;;15.73;9.13;;;;;;;13.49;100.00;101759.34;10475568;28;20544;-83
2024/02/20 05:17:16;;;;;;;13.27;9.07;;;;;;;13.63;100.00;101764.03;10464123;28;20048;-84
2024/02/20 05:22:39;;;;;;;14.52;9.40;;;;;;;13.52;100.00;101769.13;10459385;28;20502;-83
2024/02/20 05:28:03;;;;;;;15.48;9.55;;;;;;;13.35;100.00;101768.78;10455849;28;20107;-84
2024/02/20 05:33:26;;;;;;;14.23;8.93;;;;;;;13.42;100.00;101762.75;10456189;28;20041;-84
2024/02/20 05:38:48;;;;;;;13.05;8.95;;;;;;;13.55;100.00;101775.38;10483925;28;20060;-84
2024/02/20 05:44:12;;;;;;;15.27;9.20;;;;;;;13.64;100.00;101776.44;10483533;28;20049;-84
2024/02/20 05:49:34;;;;;;;11.85;8.80;;;;;;;13.70;100.00;101782.75;10455050;28;20091;-84
2024/02/20 05:54:57;;;;;;;13.07;9.13;;;;;;;13.83;100.00;101782.13;10454999;28;20052;-84
2024/02/20 06:00:21;;;;;;;13.82;9.50;;;;;;;14.03;100.00;101787.78;10438866;28;20037;-85
2024/02/20 06:05:43;;;;;;;15.20;9.05;;;;;;;14.06;100.00;101800.22;10468332;28;20407;-84
2024/02/20 06:11:06;;;;;;;15.77;11.00;;;;;;;14.25;100.00;101795.25;10467289;28;20617;-84
2024/02/20 06:16:30;;;;;;;16.33;10.60;;;;;;;14.44;100.00;101796.47;10466251;28;20048;-84
2024/02/20 06:21:52;;;;;;;15.38;10.70;;;;;;;14.60;100.00;101806.50;10480348;28;20045;-85
2024/02/20 06:27:24;;;;;;;19.52;12.38;;;;;;;14.75;100.00;101800.53;10466283;28;20114;-84
2024/02/20 06:32:48;;;;;;;16.92;10.52;;;;;;;14.77;100.00;101806.75;10439633;28;20546;-84
2024/02/20 06:38:11;;;;;;;15.77;10.95;;;;;;;14.88;100.00;101806.94;10438157;28;20053;-85
2024/02/20 06:43:36;;;;;;;16.83;10.57;;;;;;;14.95;100.00;101812.38;10438752;28;20470;-84
2024/02/20 06:49:00;;;;;;;12.77;10.13;;;;;;;15.12;100.00;101815.25;10450614;28;20064;-85
2024/02/20 06:54:23;;;;;;;15.98;10.70;;;;;;;15.53;100.00;101821.16;10440990;28;20206;-85
2024/02/20 06:59:46;;;;;;;23.23;13.30;;;;;;;16.26;100.00;101813.97;10411427;28;20046;-87
2024/02/20 07:05:10;;;;;;;38.53;21.02;;;;;;;16.86;100.00;101818.94;10444191;28;20048;-85
2024/02/20 07:10:32;;;;;;;28.90;16.40;;;;;;;17.07;100.00;101810.16;10480088;28;20139;-85
2024/02/20 07:15:55;;;;;;;15.25;9.35;;;;;;;17.17;100.00;101820.00;10481697;28;20655;-85
2024/02/20 07:21:20;;;;;;;12.88;8.75;;;;;;;17.28;100.00;101818.28;10454036;28;20493;-85
2024/02/20 07:26:50;;;;;;;15.23;9.68;;;;;;;17.26;100.00;101812.06;10445768;28;20498;-86
2024/02/20 07:32:18;;;;;;;13.10;9.13;;;;;;;17.45;100.00;101824.59;10447963;28;20037;-85
2024/02/20 07:37:45;;;;;;;14.27;9.10;;;;;;;17.57;100.00;101815.75;10449174;28;20045;-85
2024/02/20 07:43:07;;;;;;;14.82;9.88;;;;;;;17.65;100.00;101821.16;10449124;28;20514;-84
2024/02/20 07:48:30;;;;;;;20.90;13.05;;;;;;;17.78;100.00;101815.88;10448683;28;20049;-85
2024/02/20 07:53:54;;;;;;;16.90;11.38;;;;;;;17.90;100.00;101823.00;10450022;28;20055;-87
2024/02/20 07:59:16;;;;;;;30.63;21.83;;;;;;;18.40;100.00;101814.16;10472722;28;20056;-86
2024/02/20 08:04:40;;;;;;;19.35;14.60;;;;;;;18.80;100.00;101815.97;10473032;28;20057;-85
2024/02/20 08:10:05;;;;;;;19.92;14.85;;;;;;;19.17;100.00;101810.53;10477166;28;20048;-85
2024/02/20 08:15:28;;;;;;;15.30;10.55;;;;;;;19.13;100.00;101804.31;10451738;28;20061;-86
2024/02/20 08:20:51;;;;;;;16.65;10.77;;;;;;;18.60;100.00;101807.97;10468519;28;20056;-86
2024/02/20 08:26:15;;;;;;;21.42;16.27;;;;;;;18.46;100.00;101815.06;10452942;28;20132;-85
2024/02/20 08:31:37;;;;;;;34.17;25.55;;;;;;;18.62;100.00;101811.53;10430791;28;20388;-86
2024/02/20 08:37:00;;;;;;;21.02;13.95;;;;;;;18.97;100.00;101810.59;10446649;28;20386;-84
2024/02/20 08:42:24;;;;;;;18.35;11.75;;;;;;;19.68;100.00;101815.75;10433952;28;20053;-86
2024/02/20 08:47:46;;;;;;;14.90;8.73;;;;;;;20.12;99.18;101815.47;10477366;28;20570;-86
2024/02/20 08:53:10;;;;;;;14.60;8.70;;;;;;;20.38;97.88;101817.09;10447410;28;20048;-86
2024/02/20 08:58:34;;;;;;;12.23;8.75;;;;;;;21.21;91.40;101812.75;10452087;28;20394;-87
2024/02/20 09:03:57;;;;;;;23.17;14.82;;;;;;;22.32;81.89;101808.59;10457444;28;20689;-87
2024/02/20 09:09:22;;;;;;;15.75;9.75;;;;;;;22.55;76.08;101806.38;10456839;28;20051;-87
2024/02/20 09:14:46;;;;;;;13.00;8.50;;;;;;;22.89;69.73;101804.03;10456863;28;20049;-87
2024/02/20 09:20:10;;;;;;;10.80;7.38;;;;;;;22.86;63.40;101798.69;10442513;28;20056;-87
2024/02/20 09:25:33;;;;;;;54.95;39.47;;;;;;;22.98;59.91;101798.44;10482493;28;20138;-87
2024/02/20 09:30:57;;;;;;;13.50;10.60;;;;;;;23.79;54.40;101803.09;10455705;28;20059;-87
2024/02/20 09:36:20;;;;;;;15.40;11.10;;;;;;;24.01;52.06;101792.72;10484911;28;20048;-88
2024/02/20 09:41:43;;;;;;;24.45;17.20;;;;;;;24.35;51.70;101788.28;10450315;28;20056;-87
2024/02/20 09:47:08;;;;;;;27.85;20.38;;;;;;;24.93;48.91;101776.00;10456391;28;20494;-87
2024/02/20 09:52:33;;;;;;;12.65;7.13;;;;;;;25.22;44.48;101778.75;10453517;28;20052;-87
2024/02/20 09:57:57;;;;;;;12.98;8.80;;;;;;;28.81;37.83;101783.00;10465506;28;20057;-87
2024/02/20 10:03:21;;;;;;;10.63;7.70;;;;;;;29.87;34.38;101784.44;10481251;28;20111;-87
2024/02/20 10:08:44;;;;;;;8.82;7.63;;;;;;;30.27;33.87;101765.19;10482848;28;20390;-87
2024/02/20 10:14:06;;;;;;;16.38;9.82;;;;;;;31.06;32.57;101762.94;10481707;28;20053;-88
2024/02/20 10:19:30;;;;;;;11.80;8.20;;;;;;;29.67;34.27;101755.44;10440193;28;20056;-87
2024/02/20 10:25:03;;;;;;;11.70;7.93;;;;;;;31.05;32.04;101747.56;10452118;28;20610;-87
2024/02/20 10:30:26;;;;;;;10.93;6.90;;;;;;;31.52;30.59;101734.88;10437971;28;20056;-86
2024/02/20 10:36:03;;;;;;;15.43;8.85;;;;;;;27.76;34.69;101724.88;10452926;28;20036;-87
2024/02/20 10:41:25;;;;;;;14.32;11.05;;;;;;;25.93;36.86;101718.03;10452338;28;20049;-88
2024/02/20 10:46:47;;;;;;;20.15;12.95;;;;;;;25.14;39.81;101721.31;10453092;28;20044;-87
2024/02/20 10:52:12;;;;;;;11.55;8.10;;;;;;;28.28;34.94;101706.47;10452998;28;20068;-86
2024/02/20 10:57:35;;;;;;;12.45;7.60;;;;;;;29.15;33.73;101711.59;10439607;28;20114;-87
2024/02/20 11:02:58;;;;;;;12.07;8.32;;;;;;;27.01;37.57;101701.59;10454700;28;20041;-87
2024/02/20 11:08:28;;;;;;;12.15;7.57;;;;;;;25.65;39.32;101704.50;10437134;28;20056;-85
2024/02/20 11:13:58;;;;;;;11.80;8.00;;;;;;;24.75;41.66;101690.91;10487139;28;20068;-83
2024/02/20 11:19:27;;;;;;;11.70;8.13;;;;;;;24.77;41.97;101699.84;10420180;28;20131;-83
2024/02/20 11:24:51;;;;;;;11.95;7.07;;;;;;;24.51;42.17;101691.59;10423806;28;20041;-84
2024/02/20 11:30:22;;;;;;;12.07;7.45;;;;;;;24.04;42.77;101698.19;10432840;28;20172;-84
2024/02/20 11:35:47;;;;;;;9.02;7.60;;;;;;;23.81;42.86;101685.28;10444218;28;20048;-83
2024/02/20 11:41:11;;;;;;;10.25;8.52;;;;;;;24.23;43.60;101677.94;10450746;28;20132;-83
2024/02/20 11:46:34;;;;;;;10.55;8.75;;;;;;;24.63;42.21;101675.94;10448367;28;20113;-84
2024/02/20 11:52:04;;;;;;;9.80;8.40;;;;;;;24.23;43.45;101681.50;10433253;28;20152;-82
2024/02/20 11:57:29;;;;;;;10.05;7.93;;;;;;;23.56;46.32;101681.41;10429553;28;20102;-85
2024/02/20 12:02:52;;;;;;;11.50;8.02;;;;;;;22.51;49.02;101680.88;10434032;28;20056;-82
2024/02/20 12:08:16;;;;;;;15.82;11.45;;;;;;;21.83;54.11;101677.53;10461535;28;20063;-82
2024/02/20 12:13:40;;;;;;;18.20;12.38;;;;;;;21.69;55.47;101676.84;10459255;28;20053;-81
2024/02/20 12:19:03;;;;;;;12.02;9.52;;;;;;;21.15;57.28;101671.31;10459802;28;20072;-81
2024/02/20 12:24:25;;;;;;;12.20;9.02;;;;;;;21.19;58.44;101670.44;10443310;28;20128;-81
2024/02/20 12:29:49;;;;;;;12.68;8.93;;;;;;;21.33;58.92;101675.63;10486950;28;20052;-81
2024/02/20 12:35:12;;;;;;;17.98;10.02;;;;;;;21.19;59.52;101666.84;10508919;28;20041;-82
2024/02/20 12:40:35;;;;;;;12.60;9.18;;;;;;;20.86;59.53;101663.66;10484972;28;20041;-81
2024/02/20 12:45:59;;;;;;;12.63;10.70;;;;;;;20.52;62.80;101663.16;10454655;28;20055;-82
2024/02/20 12:51:22;;;;;;;27.98;22.65;;;;;;;20.28;63.43;101666.94;10482895;28;20495;-88
2024/02/20 12:56:45;;;;;;;25.92;19.20;;;;;;;19.96;64.96;101655.63;10451660;28;20095;-84
2024/02/20 13:02:09;;;;;;;14.23;11.60;;;;;;;19.79;69.12;101661.13;10426852;28;21205;-87
2024/02/20 13:07:31;;;;;;;17.83;8.23;;;;;;;19.55;70.97;101655.97;10453596;28;20525;-83
2024/02/20 13:12:55;;;;;;;12.00;8.65;;;;;;;19.36;71.75;101659.63;10467063;28;20419;-84
2024/02/20 13:18:19;;;;;;;14.13;9.55;;;;;;;19.27;74.58;101657.00;10469364;28;20041;-88
2024/02/20 13:23:42;;;;;;;12.35;8.80;;;;;;;19.06;77.92;101653.53;10439250;28;20065;-88
2024/02/20 13:29:10;;;;;;;15.50;9.70;;;;;;;18.90;80.85;101656.31;10439769;28;20045;-89
2024/02/20 13:34:34;;;;;;;17.70;11.07;;;;;;;18.79;85.55;101659.00;10440602;28;20080;-88
2024/02/20 13:39:56;;;;;;;13.57;9.40;;;;;;;18.90;87.44;101664.31;10471904;28;20795;-87
2024/02/20 13:45:19;;;;;;;13.35;9.75;;;;;;;19.16;85.98;101657.06;10453214;28;20106;-88
2024/02/20 13:50:44;;;;;;;12.57;8.63;;;;;;;19.29;84.73;101655.22;10451321;28;20203;-88
2024/02/20 13:56:07;;;;;;;11.60;7.60;;;;;;;19.42;83.73;101657.81;10470095;28;20056;-84
2024/02/20 14:01:29;;;;;;;11.00;9.00;;;;;;;19.61;82.61;101649.66;10426713;28;20517;-87
2024/02/20 14:06:53;;;;;;;15.43;10.07;;;;;;;20.02;79.97;101649.34;10454861;28;20044;-88
2024/02/20 14:12:16;;;;;;;18.77;10.35;;;;;;;20.12;76.22;101645.66;10453493;28;20060;-86
2024/02/20 14:17:39;;;;;;;12.43;9.32;;;;;;;20.10;77.66;101640.31;10481518;28;20045;-85
2024/02/20 14:23:05;;;;;;;21.05;14.30;;;;;;;19.61;83.09;101655.03;10454332;28;20579;-82
2024/02/20 14:28:28;;;;;;;17.13;13.52;;;;;;;19.01;90.38;101652.66;10463152;28;20122;-80
2024/02/20 14:33:50;;;;;;;21.23;15.13;;;;;;;18.86;93.72;101652.72;10461069;28;20136;-81
2024/02/20 14:39:14;;;;;;;44.38;38.80;;;;;;;18.78;97.26;101643.84;10448723;28;20109;-81
2024/02/20 14:44:37;;;;;;;15.30;11.13;;;;;;;18.73;99.33;101645.66;10439194;28;20513;-84
2024/02/20 14:49:59;;;;;;;19.77;11.93;;;;;;;18.58;100.00;101648.38;10431945;28;20107;-82
2024/02/20 14:55:23;;;;;;;32.75;19.80;;;;;;;18.47;100.00;101652.81;10463188;28;20631;-81
2024/02/20 15:00:46;;;;;;;37.83;23.90;;;;;;;18.33;100.00;101655.53;10434837;28;20049;-80
2024/02/20 15:06:08;;;;;;;69.88;33.00;;;;;;;18.12;100.00;101663.56;10441031;28;20041;-79
2024/02/20 15:11:32;;;;;;;50.47;28.65;;;;;;;17.94;100.00;101656.47;10448892;28;20045;-80
2024/02/20 15:16:57;;;;;;;43.72;22.25;;;;;;;17.76;100.00;101657.34;10429623;28;20045;-81
2024/02/20 15:22:19;;;;;;;24.60;17.05;;;;;;;17.51;100.00;101658.19;10462021;28;20130;-83
2024/02/20 15:27:46;;;;;;;35.45;22.75;;;;;;;17.29;100.00;101651.91;10455491;28;20560;-81
2024/02/20 15:33:09;;;;;;;42.97;28.20;;;;;;;17.11;100.00;101667.88;10472515;28;20057;-82
2024/02/20 15:38:31;;;;;;;44.35;23.58;;;;;;;16.95;100.00;101672.25;10450274;28;20045;-81
2024/02/20 15:43:55;;;;;;;28.77;17.38;;;;;;;16.80;100.00;101687.31;10455323;28;20056;-81
2024/02/20 15:49:20;;;;;;;31.77;19.05;;;;;;;16.63;100.00;101688.09;10469634;28;20065;-81
2024/02/20 15:54:43;;;;;;;26.77;18.13;;;;;;;16.47;100.00;101685.31;10434741;28;20053;-87
2024/02/20 16:00:09;;;;;;;26.45;20.20;;;;;;;16.37;100.00;101697.69;10434909;28;20060;-81
2024/02/20 16:05:38;;;;;;;26.92;23.17;;;;;;;16.30;100.00;101703.84;10460992;28;20519;-80
2024/02/20 16:11:01;;;;;;;30.17;22.60;;;;;;;16.15;100.00;101709.03;10457074;28;20061;-81
2024/02/20 16:16:25;;;;;;;33.83;27.77;;;;;;;16.00;100.00;101714.25;10455427;28;20118;-83
2024/02/20 16:21:48;;;;;;;55.38;41.55;;;;;;;15.89;100.00;101715.03;10454847;28;20045;-82
2024/02/20 16:27:10;;;;;;;30.30;22.08;;;;;;;15.74;100.00;101722.91;10407212;28;20049;-83
2024/02/20 16:32:34;;;;;;;26.30;18.77;;;;;;;15.68;100.00;101733.50;10414781;28;20562;-80
2024/02/20 16:37:58;;;;;;;23.67;17.67;;;;;;;15.68;100.00;101740.59;10448057;28;20056;-81
2024/02/20 16:43:21;;;;;;;20.88;17.30;;;;;;;15.66;100.00;101745.91;10438306;28;20102;-78
2024/02/20 16:48:45;;;;;;;21.13;16.77;;;;;;;15.60;100.00;101751.16;10415341;28;20057;-81
2024/02/20 16:54:07;;;;;;;22.10;17.27;;;;;;;15.46;100.00;101755.38;10449297;28;20087;-84
2024/02/20 16:59:30;;;;;;;28.63;23.45;;;;;;;15.16;100.00;101759.44;10450270;28;20132;-81
2024/02/20 17:04:54;;;;;;;41.28;32.58;;;;;;;14.82;100.00;101764.31;10476128;28;20413;-86
2024/02/20 17:10:16;;;;;;;38.58;30.00;;;;;;;14.43;100.00;101775.22;10462224;28;20091;-86
2024/02/20 17:15:39;;;;;;;23.42;19.92;;;;;;;14.08;100.00;101777.25;10443084;28;20053;-84
2024/02/20 17:21:13;;;;;;;18.05;15.10;;;;;;;13.87;100.00;101776.00;10439375;28;20513;-90
2024/02/20 17:26:37;;;;;;;20.55;15.43;;;;;;;13.92;100.00;101787.59;10487366;28;20482;-81
2024/02/20 17:32:00;;;;;;;20.92;15.98;;;;;;;14.01;100.00;101789.53;10427051;28;20052;-85
2024/02/20 17:37:24;;;;;;;23.38;18.35;;;;;;;14.07;100.00;101794.94;10459517;28;20087;-90
2024/02/20 17:42:46;;;;;;;23.30;19.23;;;;;;;13.96;100.00;101797.41;10425296;28;20053;-83
2024/02/20 17:48:09;;;;;;;31.88;28.50;;;;;;;13.77;100.00;101797.94;10465339;28;20064;-78
2024/02/20 17:53:33;;;;;;;23.42;20.80;;;;;;;13.66;100.00;101807.41;10422180;28;20045;-82
2024/02/20 17:58:55;;;;;;;24.23;18.17;;;;;;;13.50;100.00;101806.25;10415477;28;20086;-80
2024/02/20 18:04:18;;;;;;;21.40;17.17;;;;;;;13.35;100.00;101810.31;10481572;28;20047;-82
2024/02/20 18:09:42;;;;;;;22.73;17.58;;;;;;;13.41;100.00;101808.69;10440621;28;20044;-82
2024/02/20 18:15:09;;;;;;;19.95;15.73;;;;;;;13.41;100.00;101826.34;10438085;28;20533;-80
2024/02/20 18:20:35;;;;;;;21.98;16.25;;;;;;;13.39;100.00;101823.66;10421933;28;20372;-84
2024/02/20 18:26:00;;;;;;;23.80;19.48;;;;;;;13.37;100.00;101825.41;10417580;28;20498;-87
2024/02/20 18:31:22;;;;;;;24.65;17.52;;;;;;;13.15;100.00;101829.34;10426301;28;20441;-90
2024/02/20 18:36:44;;;;;;;33.00;23.27;;;;;;;12.87;100.00;101836.59;10445934;28;20108;-87
2024/02/20 18:42:08;;;;;;;31.08;24.67;;;;;;;12.83;100.00;101832.09;10437787;28;20085;-86
2024/02/20 18:47:31;;;;;;;45.72;40.90;;;;;;;12.58;100.00;101842.09;10449640;28;20064;-82
2024/02/20 18:52:54;;;;;;;20.90;17.08;;;;;;;12.34;100.00;101839.72;10433446;28;20053;-83
2024/02/20 18:58:19;;;;;;;20.50;17.58;;;;;;;12.12;100.00;101845.31;10451785;28;20053;-86
2024/02/20 19:03:41;;;;;;;23.85;19.45;;;;;;;12.04;100.00;101833.63;10459121;28;20516;-88
2024/02/20 19:09:05;;;;;;;28.33;25.33;;;;;;;12.22;100.00;101843.81;10439615;28;20096;-87
2024/02/20 19:14:30;;;;;;;45.28;40.78;;;;;;;12.21;100.00;101842.00;10454114;28;20083;-88
2024/02/20 19:19:52;;;;;;;43.08;38.45;;;;;;;12.14;100.00;101840.09;10474910;28;20040;-87
2024/02/20 19:25:15;;;;;;;65.60;59.00;;;;;;;11.85;100.00;101850.75;10434567;28;20041;-90
2024/02/20 19:30:39;;;;;;;64.28;57.63;;;;;;;11.71;100.00;101851.19;10450367;28;20048;-89
2024/02/20 19:36:01;;;;;;;24.60;20.92;;;;;;;11.77;100.00;101839.06;10420276;28;20053;-87
2024/02/20 19:41:25;;;;;;;29.60;24.70;;;;;;;11.63;100.00;101850.97;10441557;28;20048;-85
2024/02/20 19:46:49;;;;;;;29.13;21.83;;;;;;;11.62;100.00;101857.09;10453941;28;20065;-79
2024/02/20 19:52:11;;;;;;;24.08;19.23;;;;;;;11.78;100.00;101854.09;10447031;28;20049;-82
2024/02/20 19:57:33;;;;;;;29.75;24.48;;;;;;;11.80;100.00;101855.03;10437640;28;20044;-83
2024/02/20 20:02:57;;;;;;;34.25;29.95;;;;;;;11.88;100.00;101857.91;10451978;28;20056;-82
2024/02/20 20:08:20;;;;;;;38.78;31.65;;;;;;;11.98;100.00;101860.84;10467207;28;20053;-82
2024/02/20 20:13:42;;;;;;;40.33;34.72;;;;;;;12.02;100.00;101850.31;10425232;28;20506;-81
2024/02/20 20:19:08;;;;;;;36.17;31.35;;;;;;;11.95;100.00;101857.19;10474399;28;20045;-82
2024/02/20 20:24:30;;;;;;;25.83;21.42;;;;;;;11.83;100.00;101854.22;10422055;28;20064;-82
2024/02/20 20:29:53;;;;;;;22.83;15.98;;;;;;;11.59;100.00;101860.56;10463102;28;20099;-82
2024/02/20 20:35:17;;;;;;;22.33;17.48;;;;;;;11.38;100.00;101859.94;10463083;28;20041;-81
2024/02/20 20:40:42;;;;;;;30.90;27.40;;;;;;;11.41;100.00;101865.31;10435336;28;20738;-82
2024/02/20 20:46:05;;;;;;;38.38;32.90;;;;;;;11.40;100.00;101862.63;10477043;28;20095;-83
2024/02/20 20:51:29;;;;;;;45.05;40.20;;;;;;;11.45;100.00;101856.63;10479934;28;20458;-82
2024/02/20 20:56:51;;;;;;;23.65;21.13;;;;;;;11.35;100.00;101861.59;10478077;28;20463;-82
2024/02/20 21:02:14;;;;;;;28.90;22.25;;;;;;;11.14;100.00;101862.75;10469432;28;20133;-83
2024/02/20 21:07:38;;;;;;;28.10;21.25;;;;;;;11.00;100.00;101858.75;10453992;28;20045;-82
2024/02/20 21:13:00;;;;;;;23.83;17.88;;;;;;;11.17;100.00;101862.81;10474268;28;20049;-82
2024/02/20 21:18:23;;;;;;;27.15;20.60;;;;;;;11.40;100.00;101857.34;10416289;28;20056;-84
2024/02/20 21:23:48;;;;;;;27.08;20.25;;;;;;;11.21;100.00;101853.25;10463737;28;20045;-83
2024/02/20 21:29:11;;;;;;;24.90;19.08;;;;;;;11.01;100.00;101857.03;10471686;28;20049;-83
2024/02/20 21:34:34;;;;;;;25.08;18.80;;;;;;;11.13;100.00;101855.66;10457446;28;20132;-84
2024/02/20 21:39:58;;;;;;;27.38;22.13;;;;;;;11.05;100.00;101851.88;10426795;28;20049;-82
2024/02/20 21:45:20;;;;;;;23.60;18.70;;;;;;;10.96;100.00;101856.84;10455876;28;20064;-82
2024/02/20 21:50:43;;;;;;;23.63;19.00;;;;;;;11.21;100.00;101857.66;10452780;28;20495;-82
2024/02/20 21:56:07;;;;;;;32.83;24.58;;;;;;;11.24;100.00;101852.44;10440179;28;20774;-83
2024/02/20 22:01:30;;;;;;;28.77;22.02;;;;;;;11.29;100.00;101858.78;10469463;28;20618;-83
2024/02/20 22:06:52;;;;;;;25.55;19.60;;;;;;;11.58;100.00;101849.94;10439552;28;20111;-82
2024/02/20 22:12:16;;;;;;;24.42;20.33;;;;;;;11.63;100.00;101858.00;10468002;28;20122;-83
2024/02/20 22:17:39;;;;;;;25.33;21.25;;;;;;;11.59;100.00;101847.34;10434101;28;20048;-83
2024/02/20 22:23:02;;;;;;;23.23;19.27;;;;;;;11.68;100.00;101853.75;10438526;28;20041;-82
2024/02/20 22:28:27;;;;;;;28.15;23.75;;;;;;;11.77;100.00;101847.00;10453875;28;20483;-81
2024/02/20 22:33:49;;;;;;;28.70;24.40;;;;;;;11.72;100.00;101855.63;10439912;28;20458;-81
2024/02/20 22:39:12;;;;;;;27.20;19.55;;;;;;;11.87;100.00;101846.41;10459826;28;20132;-81
2024/02/20 22:44:36;;;;;;;22.10;13.93;;;;;;;12.08;100.00;101855.81;10461849;28;20049;-81
2024/02/20 22:49:58;;;;;;;15.38;12.82;;;;;;;12.21;100.00;101858.78;10431132;28;20044;-81
2024/02/20 22:55:20;;;;;;;22.55;15.85;;;;;;;12.09;100.00;101846.97;10450524;28;20048;-81
2024/02/20 23:00:44;;;;;;;23.85;19.30;;;;;;;11.83;100.00;101844.53;10452719;28;20041;-81
2024/02/20 23:06:07;;;;;;;28.10;25.17;;;;;;;11.64;100.00;101846.56;10477504;28;20564;-80
2024/02/20 23:11:30;;;;;;;27.50;21.83;;;;;;;11.61;100.00;101851.78;10451430;28;20051;-84
2024/02/20 23:16:54;;;;;;;18.77;14.68;;;;;;;11.74;100.00;101841.63;10441339;28;20530;-82
2024/02/20 23:22:17;;;;;;;17.80;14.95;;;;;;;11.76;100.00;101850.50;10437296;28;20053;-82
2024/02/20 23:27:40;;;;;;;17.92;13.40;;;;;;;11.70;100.00;101842.34;10451447;28;20098;-82
2024/02/20 23:33:04;;;;;;;17.08;14.07;;;;;;;11.63;100.00;101839.47;10437323;28;20052;-82
2024/02/20 23:38:27;;;;;;;19.35;14.77;;;;;;;11.58;100.00;101837.63;10479085;28;20110;-82
2024/02/20 23:43:49;;;;;;;15.40;13.10;;;;;;;11.47;100.00;101846.09;10450850;28;20057;-83
2024/02/20 23:49:13;;;;;;;17.85;13.02;;;;;;;11.33;100.00;101848.34;10464261;28;20099;-81
2024/02/20 23:54:38;;;;;;;25.80;19.27;;;;;;;11.20;100.00;101848.81;10461611;28;20053;-82
